Portada
METAR-TAF:

METAR-TAF

Aeropuertos :

Aeropuerto Internacional de El Cairo

El Cairo, Egipto

latitud: 30-08N, longitud: 031-24E, altitud: 64 m

Observación

El informe se hizo hace 39 minutos, a las 01:00 UTC
Viento 6 kt del noreste
Temperatura 28°C
Humedad 48%
Presión 1012 hPa
Visibilidad 10 km o más
sin nubes por debajo de 1500 m y sin presencia de cumulonimbus.

METAR: HECA 220100Z 05006KT CAVOK 28/16 Q1012 NOSIG

Hora: 03:39 (01:39 UTC)

Pronóstico

El informe se hizo hace 2 horas y 39 minutos, a las 23:00 UTC
Pronóstico válido del 22 a las 00 UTC al 23 a las 06 UTC
Viento 9 kt del este-noreste
Visibilidad 10 km o más
sin nubes por debajo de 1500 m y sin presencia de cumulonimbus.
Evolucionando progresivamente
del 22 a las 12 UTC al 22 a las 14 UTC
Viento 12 kt del norte-noreste con ráfagas de 23 kt

TAF: HECA 212300Z 2200/2306 07009KT CAVOK BECMG 2212/2214 02012G23KT

Observaciones y pronósticos meteorológicos de más de 4000 aeropuertos (mensajes METAR y TAF).

Los puntos amarillos y rojos representan las estaciones disponibles.

Ponga el ratón en el punto deseado para ver el nombre de la estación.

Haga clic para ver las observaciones y los pronósticos meteorológicos.

Para cambiar el mapa : haga clic en los botones verdes con una cruz de color negro para hacer un zoom, en el botón verde con un guión para alejar o en las flechas verdes para mapas adyacentes.


METAR-TAF: